createdAt,value
2022-12-01T00:03:11.026Z,15.75
2022-12-01T00:08:37.953Z,16.88
2022-12-01T00:14:03.008Z,16.73
2022-12-01T00:19:27.006Z,18.48
2022-12-01T00:25:01.964Z,17.70
2022-12-01T00:30:28.985Z,19.13
2022-12-01T00:35:52.983Z,21.83
2022-12-01T00:41:21.083Z,19.88
2022-12-01T00:46:45.017Z,17.73
2022-12-01T00:52:10.012Z,21.30
2022-12-01T00:57:37.089Z,21.48
2022-12-01T01:03:01.977Z,20.58
2022-12-01T01:08:28.989Z,20.80
2022-12-01T01:13:56.973Z,22.38
2022-12-01T01:19:21.013Z,21.52
2022-12-01T01:24:52.057Z,21.65
2022-12-01T01:30:21.142Z,21.97
2022-12-01T01:35:45.982Z,20.75
2022-12-01T01:41:12.022Z,22.50
2022-12-01T01:46:39.981Z,22.73
2022-12-01T01:52:05.022Z,23.40
2022-12-01T01:57:35.041Z,25.20
2022-12-01T02:03:04.019Z,22.35
2022-12-01T02:08:29.020Z,24.10
2022-12-01T02:14:04.997Z,24.17
2022-12-01T02:19:56.048Z,22.92
2022-12-01T02:25:44.175Z,22.73
2022-12-01T02:31:18.088Z,23.38
2022-12-01T02:36:51.136Z,23.38
2022-12-01T02:42:44.036Z,23.77
2022-12-01T02:48:16.009Z,27.90
2022-12-01T02:53:42.029Z,28.00
2022-12-01T02:59:07.039Z,32.50
2022-12-01T03:04:55.049Z,31.45
2022-12-01T03:10:31.222Z,34.47
2022-12-01T03:16:04.068Z,40.60
2022-12-01T03:21:44.058Z,44.00
2022-12-01T03:27:12.041Z,43.80
2022-12-01T03:32:41.065Z,54.33
2022-12-01T03:38:14.057Z,44.83
2022-12-01T03:43:43.138Z,46.95
2022-12-01T03:49:10.075Z,45.95
2022-12-01T03:54:45.050Z,50.97
2022-12-01T04:00:11.074Z,54.78
2022-12-01T04:05:35.065Z,59.38
2022-12-01T04:11:03.040Z,59.88
2022-12-01T04:16:27.238Z,68.25
2022-12-01T04:21:53.048Z,81.22
2022-12-01T04:27:20.079Z,69.85
2022-12-01T04:32:48.036Z,96.70
2022-12-01T04:38:12.036Z,74.63
2022-12-01T04:43:40.288Z,72.05
2022-12-01T04:49:04.076Z,74.43
2022-12-01T04:54:29.102Z,71.47
2022-12-01T04:59:56.182Z,80.60
2022-12-01T05:05:22.120Z,88.20
2022-12-01T05:10:50.079Z,120.50
2022-12-01T05:16:21.088Z,156.65
2022-12-01T05:21:52.088Z,128.63
2022-12-01T05:27:17.184Z,89.10
2022-12-01T05:32:44.088Z,150.32
2022-12-01T05:38:09.132Z,223.85
2022-12-01T05:43:34.146Z,249.48
2022-12-01T05:49:02.083Z,140.18
2022-12-01T05:54:26.096Z,171.05
2022-12-01T05:59:51.281Z,93.13
2022-12-01T06:05:18.517Z,196.18
2022-12-01T06:10:43.125Z,225.50
2022-12-01T06:16:18.165Z,302.70
2022-12-01T06:21:46.098Z,145.40
2022-12-01T06:27:10.089Z,433.58
2022-12-01T06:32:35.111Z,331.50
2022-12-01T06:38:02.129Z,626.42
2022-12-01T06:43:33.154Z,497.35
2022-12-01T06:48:58.108Z,310.17
2022-12-01T06:54:28.134Z,430.58
2022-12-01T06:59:53.198Z,313.95
2022-12-01T07:05:17.110Z,381.77
2022-12-01T07:10:45.123Z,547.58
2022-12-01T07:16:09.134Z,523.72
2022-12-01T07:21:34.146Z,501.25
2022-12-01T07:27:01.130Z,428.77
2022-12-01T07:32:26.146Z,591.10
2022-12-01T07:37:50.270Z,533.85
2022-12-01T07:43:18.125Z,410.70
2022-12-01T07:48:45.139Z,340.85
2022-12-01T07:54:13.104Z,275.70
2022-12-01T07:59:40.165Z,152.45
2022-12-01T08:05:05.156Z,168.43
2022-12-01T08:10:29.172Z,195.27
2022-12-01T08:15:57.229Z,103.93
2022-12-01T08:21:22.178Z,53.30
2022-12-01T08:26:47.149Z,83.30
2022-12-01T08:32:15.137Z,90.68
2022-12-01T08:37:40.153Z,83.68
2022-12-01T08:43:04.144Z,72.85
2022-12-01T08:48:32.144Z,61.78
2022-12-01T08:53:59.285Z,64.50
2022-12-01T08:59:24.166Z,64.38
2022-12-01T09:04:51.158Z,84.97
2022-12-01T09:10:18.195Z,58.90
2022-12-01T09:15:42.200Z,48.15
2022-12-01T09:21:10.180Z,46.40
2022-12-01T09:26:42.518Z,37.55
2022-12-01T09:32:09.156Z,41.50
2022-12-01T09:37:36.237Z,45.97
2022-12-01T09:43:01.186Z,38.88
2022-12-01T09:48:33.472Z,39.28
2022-12-01T09:54:04.177Z,45.55
2022-12-01T09:59:35.195Z,41.30
2022-12-01T10:05:03.239Z,46.60
2022-12-01T10:10:33.219Z,53.92
2022-12-01T10:16:03.450Z,55.50
2022-12-01T10:21:35.222Z,38.65
2022-12-01T10:27:19.273Z,45.35
2022-12-01T10:32:54.193Z,39.63
2022-12-01T10:38:22.233Z,53.08
2022-12-01T10:43:58.228Z,42.55
2022-12-01T10:49:27.203Z,38.63
2022-12-01T10:54:52.202Z,37.10
2022-12-01T11:00:58.475Z,38.10
2022-12-01T11:06:21.287Z,43.70
2022-12-01T11:11:50.224Z,41.78
2022-12-01T11:17:40.212Z,41.33
2022-12-01T11:23:04.240Z,43.17
2022-12-01T11:28:30.426Z,52.00
2022-12-01T11:34:03.222Z,53.42
2022-12-01T11:39:35.225Z,48.60
2022-12-01T11:45:05.219Z,47.08
2022-12-01T11:50:38.245Z,46.70
2022-12-01T11:56:02.232Z,51.00
2022-12-01T12:01:37.406Z,60.72
2022-12-01T12:07:12.246Z,83.80
2022-12-01T12:12:52.262Z,64.97
2022-12-01T12:18:33.221Z,230.43
2022-12-01T12:24:20.341Z,94.40
2022-12-01T12:30:03.245Z,123.05
2022-12-01T12:35:41.232Z,73.63
2022-12-01T12:41:13.279Z,81.40
2022-12-01T12:46:50.294Z,89.80
2022-12-01T12:52:18.254Z,207.05
2022-12-01T12:57:50.284Z,137.90
2022-12-01T13:03:21.242Z,95.82
2022-12-01T13:08:51.263Z,116.45
2022-12-01T13:14:24.551Z,81.53
2022-12-01T13:19:53.255Z,84.22
2022-12-01T13:25:29.269Z,79.07
2022-12-01T13:31:11.296Z,86.03
2022-12-01T13:36:47.374Z,109.13
2022-12-01T13:42:15.330Z,83.70
2022-12-01T13:47:54.322Z,80.85
2022-12-01T13:53:22.443Z,73.30
2022-12-01T13:59:03.323Z,78.85
2022-12-01T14:04:41.259Z,82.53
2022-12-01T14:10:08.281Z,92.75
2022-12-01T14:15:49.276Z,94.43
2022-12-01T14:21:17.352Z,135.53
2022-12-01T14:26:58.301Z,95.53
2022-12-01T14:32:32.368Z,87.70
2022-12-01T14:38:04.515Z,84.30
2022-12-01T14:43:42.269Z,92.93
2022-12-01T14:49:06.308Z,104.43
2022-12-01T14:54:39.280Z,88.07
2022-12-01T15:00:18.464Z,217.75
2022-12-01T15:05:50.341Z,117.35
2022-12-01T15:11:19.307Z,93.72
2022-12-01T15:16:50.371Z,101.88
2022-12-01T15:22:19.623Z,92.23
2022-12-01T15:27:47.283Z,88.18
2022-12-01T15:33:13.333Z,105.60
2022-12-01T15:38:41.330Z,98.93
2022-12-01T15:44:15.403Z,102.05
2022-12-01T15:49:39.488Z,98.18
2022-12-01T15:55:06.508Z,115.95
2022-12-01T16:00:38.398Z,127.18
2022-12-01T16:06:04.322Z,103.68
2022-12-01T16:11:31.568Z,154.90
2022-12-01T16:17:00.802Z,373.10
2022-12-01T16:22:31.344Z,572.00
2022-12-01T16:28:07.333Z,427.40
2022-12-01T16:33:37.388Z,537.80
2022-12-01T16:39:02.509Z,452.67
2022-12-01T16:44:28.986Z,556.63
2022-12-01T16:49:57.348Z,525.85
2022-12-01T16:55:41.357Z,308.30
2022-12-01T17:01:06.356Z,283.58
2022-12-01T17:06:35.347Z,267.15
2022-12-01T17:12:03.540Z,280.13
2022-12-01T17:17:27.346Z,243.35
2022-12-01T17:22:55.362Z,221.30
2022-12-01T17:28:20.734Z,169.60
2022-12-01T17:33:45.396Z,193.43
2022-12-01T17:39:13.394Z,140.02
2022-12-01T17:44:38.344Z,133.70
2022-12-01T17:50:02.364Z,115.97
2022-12-01T17:55:30.689Z,127.90
2022-12-01T18:00:54.533Z,122.47
2022-12-01T18:06:19.426Z,115.78
2022-12-01T18:11:46.350Z,110.50
2022-12-01T18:17:11.534Z,109.63
2022-12-01T18:22:35.386Z,109.75
2022-12-01T18:28:05.377Z,105.53
2022-12-01T18:33:29.462Z,99.57
2022-12-01T18:38:55.425Z,97.53
2022-12-01T18:44:22.461Z,93.68
2022-12-01T18:49:47.387Z,75.20
2022-12-01T18:55:11.370Z,71.20
2022-12-01T19:00:39.428Z,72.00
2022-12-01T19:06:04.381Z,72.50
2022-12-01T19:11:29.360Z,75.55
2022-12-01T19:16:57.377Z,76.43
2022-12-01T19:22:22.396Z,67.40
2022-12-01T19:27:54.416Z,62.00
2022-12-01T19:38:46.425Z,58.85
2022-12-01T19:44:12.478Z,62.38
2022-12-01T19:49:39.372Z,55.70
2022-12-01T19:55:04.449Z,60.67
2022-12-01T20:00:30.383Z,50.40
2022-12-01T20:05:58.776Z,48.78
2022-12-01T20:11:23.431Z,41.90
2022-12-01T20:16:48.464Z,36.13
2022-12-01T20:22:17.436Z,33.75
2022-12-01T20:27:49.419Z,36.22
2022-12-01T20:33:14.492Z,30.95
2022-12-01T20:38:41.421Z,28.50
2022-12-01T20:44:07.768Z,25.73
2022-12-01T20:49:33.426Z,26.23
2022-12-01T20:55:01.407Z,24.73
2022-12-01T21:00:28.414Z,25.23
2022-12-01T21:05:53.420Z,24.48
2022-12-01T21:11:48.450Z,23.80
2022-12-01T21:17:26.446Z,26.83
2022-12-01T21:23:02.470Z,30.70
2022-12-01T21:28:31.474Z,29.67
2022-12-01T21:33:56.447Z,33.10
2022-12-01T21:39:25.445Z,33.60
2022-12-01T21:44:54.425Z,33.00
2022-12-01T21:50:27.433Z,31.20
2022-12-01T21:55:54.554Z,27.90
2022-12-01T22:01:29.604Z,31.30
2022-12-01T22:06:55.467Z,31.38
2022-12-01T22:12:32.530Z,31.55
2022-12-01T22:18:00.531Z,30.17
2022-12-01T22:23:25.475Z,30.85
2022-12-01T22:28:51.509Z,31.83
2022-12-01T22:34:23.830Z,33.42
2022-12-01T22:39:50.814Z,32.08
2022-12-01T22:45:31.711Z,32.08
2022-12-01T22:51:00.731Z,31.95
2022-12-01T22:56:42.457Z,33.47
2022-12-01T23:02:09.568Z,31.30
2022-12-01T23:08:01.564Z,31.20
2022-12-01T23:13:30.556Z,30.38
2022-12-01T23:18:57.483Z,32.47
2022-12-01T23:24:33.476Z,33.92
2022-12-01T23:30:06.563Z,31.02
2022-12-01T23:35:40.492Z,30.92
2022-12-01T23:41:10.500Z,28.58
2022-12-01T23:46:37.538Z,29.67
2022-12-01T23:52:05.519Z,31.27
2022-12-01T23:57:37.522Z,30.23
